createdAt,value
2022-12-18T00:01:22.425Z,90.19
2022-12-18T00:03:49.912Z,90.06
2022-12-18T00:06:17.647Z,90.49
2022-12-18T00:08:45.877Z,89.74
2022-12-18T00:11:19.472Z,90.02
2022-12-18T00:13:47.701Z,90.25
2022-12-18T00:16:17.563Z,90.70
2022-12-18T00:18:44.768Z,90.81
2022-12-18T00:21:13.796Z,91.28
2022-12-18T00:23:43.939Z,90.70
2022-12-18T00:26:15.884Z,90.93
2022-12-18T00:28:44.423Z,90.48
2022-12-18T00:31:14.663Z,90.98
2022-12-18T00:33:42.907Z,90.34
2022-12-18T00:36:19.055Z,89.95
2022-12-18T00:38:47.013Z,90.33
2022-12-18T00:41:39.325Z,90.74
2022-12-18T00:44:10.052Z,89.56
2022-12-18T00:46:37.067Z,89.70
2022-12-18T00:49:05.146Z,89.56
2022-12-18T00:51:31.958Z,89.30
2022-12-18T00:53:59.387Z,89.42
2022-12-18T00:56:26.530Z,90.48
2022-12-18T00:58:53.539Z,90.10
2022-12-18T01:01:21.117Z,90.47
2022-12-18T01:03:48.464Z,90.36
2022-12-18T01:06:16.820Z,90.22
2022-12-18T01:08:44.048Z,90.35
2022-12-18T01:11:18.057Z,89.86
2022-12-18T01:13:45.708Z,90.07
2022-12-18T01:16:14.447Z,90.06
2022-12-18T01:18:41.429Z,90.67
2022-12-18T01:21:14.646Z,91.06
2022-12-18T01:23:41.922Z,90.66
2022-12-18T01:26:12.250Z,90.76
2022-12-18T01:28:39.770Z,91.17
2022-12-18T01:31:19.541Z,91.47
2022-12-18T01:33:49.380Z,90.87
2022-12-18T01:36:18.642Z,90.97
2022-12-18T01:38:46.525Z,90.44
2022-12-18T01:41:14.959Z,91.14
2022-12-18T01:43:47.977Z,90.78
2022-12-18T01:46:15.747Z,90.04
2022-12-18T01:48:45.192Z,90.72
2022-12-18T01:51:13.396Z,91.03
2022-12-18T01:53:43.157Z,90.71
2022-12-18T01:56:16.167Z,91.03
2022-12-18T01:59:03.510Z,90.36
2022-12-18T02:01:33.189Z,91.21
2022-12-18T02:04:26.846Z,91.00
2022-12-18T02:07:33.194Z,91.07
2022-12-18T02:10:02.235Z,91.49
2022-12-18T02:12:43.977Z,90.95
2022-12-18T02:15:22.330Z,90.80
2022-12-18T02:17:57.641Z,90.56
2022-12-18T02:20:48.767Z,91.45
2022-12-18T02:23:57.049Z,90.87
2022-12-18T02:26:45.213Z,90.19
2022-12-18T02:29:22.741Z,91.23
2022-12-18T02:31:57.603Z,91.67
2022-12-18T02:34:30.698Z,91.24
2022-12-18T02:37:01.796Z,91.00
2022-12-18T02:39:33.061Z,90.56
2022-12-18T02:42:03.308Z,91.10
2022-12-18T02:44:30.312Z,91.30
2022-12-18T02:46:57.609Z,92.10
2022-12-18T02:49:48.699Z,92.29
2022-12-18T02:52:23.881Z,91.95
2022-12-18T02:55:08.981Z,90.98
2022-12-18T02:57:45.561Z,91.44
2022-12-18T03:00:16.924Z,91.36
2022-12-18T03:02:54.798Z,91.30
2022-12-18T03:05:42.733Z,90.93
2022-12-18T03:08:24.671Z,90.59
2022-12-18T03:11:02.828Z,90.31
2022-12-18T03:13:41.549Z,90.25
2022-12-18T03:16:15.056Z,90.50
2022-12-18T03:18:54.799Z,90.09
2022-12-18T03:21:29.211Z,90.35
2022-12-18T03:23:57.727Z,90.08
2022-12-18T03:26:27.925Z,89.30
2022-12-18T03:29:00.799Z,89.91
2022-12-18T03:31:31.826Z,90.15
2022-12-18T03:34:14.241Z,89.66
2022-12-18T03:36:41.563Z,89.80
2022-12-18T03:39:08.599Z,88.92
2022-12-18T03:41:48.051Z,88.78
2022-12-18T03:44:27.698Z,88.99
2022-12-18T03:47:10.106Z,89.20
2022-12-18T03:49:51.384Z,89.17
2022-12-18T03:52:29.747Z,89.11
2022-12-18T03:55:00.908Z,89.99
2022-12-18T03:57:32.448Z,89.01
2022-12-18T04:00:08.949Z,89.00
2022-12-18T04:02:40.884Z,88.33
2022-12-18T04:05:11.460Z,89.27
2022-12-18T04:07:40.316Z,89.73
2022-12-18T04:10:08.573Z,89.21
2022-12-18T04:12:35.404Z,88.78
2022-12-18T04:15:02.457Z,88.52
2022-12-18T04:17:29.317Z,89.00
2022-12-18T04:19:56.202Z,89.47
2022-12-18T04:22:23.016Z,88.59
2022-12-18T04:24:49.919Z,89.18
2022-12-18T04:27:17.059Z,88.09
2022-12-18T04:29:43.911Z,88.62
2022-12-18T04:32:10.728Z,88.49
2022-12-18T04:34:37.859Z,88.22
2022-12-18T04:37:05.188Z,88.83
2022-12-18T04:39:32.213Z,89.08
2022-12-18T04:41:59.190Z,87.78
2022-12-18T04:44:26.240Z,89.06
2022-12-18T04:46:53.410Z,88.78
2022-12-18T04:49:21.640Z,88.38
2022-12-18T04:51:48.605Z,88.08
2022-12-18T04:54:15.623Z,87.79
2022-12-18T04:56:42.683Z,87.81
2022-12-18T04:59:09.667Z,87.98
2022-12-18T05:01:46.831Z,88.31
2022-12-18T05:04:23.399Z,88.03
2022-12-18T05:06:52.899Z,87.13
2022-12-18T05:09:24.377Z,87.94
2022-12-18T05:12:00.632Z,87.52
2022-12-18T05:14:34.975Z,87.88
2022-12-18T05:17:03.983Z,87.20
2022-12-18T05:19:33.460Z,87.46
2022-12-18T05:22:02.967Z,87.00
2022-12-18T05:24:30.364Z,87.01
2022-12-18T05:26:57.489Z,87.07
2022-12-18T05:29:24.863Z,87.17
2022-12-18T05:31:52.104Z,87.13
2022-12-18T05:34:19.447Z,87.95
2022-12-18T05:36:46.669Z,87.68
2022-12-18T05:39:13.706Z,87.43
2022-12-18T05:41:40.910Z,87.93
2022-12-18T05:44:08.789Z,88.70
2022-12-18T05:46:35.952Z,89.10
2022-12-18T05:49:04.669Z,88.88
2022-12-18T05:51:32.398Z,88.51
2022-12-18T05:54:02.909Z,88.63
2022-12-18T05:56:30.273Z,88.33
2022-12-18T05:58:58.892Z,88.71
2022-12-18T06:01:28.127Z,88.15
2022-12-18T06:03:56.386Z,87.89
2022-12-18T06:06:26.832Z,87.97
2022-12-18T06:08:55.498Z,87.43
2022-12-18T06:11:24.983Z,87.70
2022-12-18T06:13:58.158Z,87.20
2022-12-18T06:16:26.785Z,87.51
2022-12-18T06:18:57.122Z,87.29
2022-12-18T06:21:24.445Z,87.42
2022-12-18T06:23:51.695Z,87.01
2022-12-18T06:26:22.087Z,86.95
2022-12-18T06:28:51.896Z,87.48
2022-12-18T06:31:18.954Z,86.96
2022-12-18T06:33:45.951Z,87.34
2022-12-18T06:36:14.434Z,87.13
2022-12-18T06:38:44.319Z,86.12
2022-12-18T06:41:21.086Z,86.29
2022-12-18T06:43:48.179Z,86.67
2022-12-18T06:46:15.725Z,86.72
2022-12-18T06:48:43.178Z,86.06
2022-12-18T06:51:10.396Z,86.58
2022-12-18T06:53:37.677Z,86.67
2022-12-18T06:56:10.377Z,86.61
2022-12-18T06:58:41.210Z,86.11
2022-12-18T07:01:12.714Z,86.85
2022-12-18T07:11:21.519Z,86.19
2022-12-18T07:13:48.930Z,86.56
2022-12-18T07:16:24.321Z,85.82
2022-12-18T07:18:53.163Z,85.54
2022-12-18T07:21:22.670Z,85.28
2022-12-18T07:23:49.945Z,85.11
2022-12-18T07:26:20.590Z,86.05
2022-12-18T07:28:48.055Z,85.54
2022-12-18T07:31:18.944Z,86.10
2022-12-18T07:33:46.998Z,85.86
2022-12-18T07:36:14.803Z,86.05
2022-12-18T07:38:41.755Z,85.03
2022-12-18T07:41:12.110Z,85.93
2022-12-18T07:43:40.844Z,85.01
2022-12-18T07:46:10.070Z,85.57
2022-12-18T07:48:37.176Z,84.95
2022-12-18T07:51:07.366Z,84.55
2022-12-18T07:53:36.465Z,84.39
2022-12-18T07:58:55.504Z,84.00
2022-12-18T08:01:22.567Z,83.97
2022-12-18T08:03:49.904Z,83.60
2022-12-18T08:06:23.970Z,83.23
2022-12-18T08:08:56.348Z,83.54
2022-12-18T08:11:26.262Z,83.06
2022-12-18T08:13:54.393Z,82.83
2022-12-18T08:16:22.768Z,82.43
2022-12-18T08:18:49.856Z,82.47
2022-12-18T08:21:27.112Z,81.86
2022-12-18T08:23:57.135Z,81.28
2022-12-18T08:26:27.932Z,81.18
2022-12-18T08:28:56.803Z,80.75
2022-12-18T08:31:25.790Z,81.04
2022-12-18T08:33:54.942Z,80.99
2022-12-18T08:36:23.730Z,80.17
2022-12-18T08:38:51.639Z,80.27
2022-12-18T08:41:22.202Z,80.23
2022-12-18T08:44:07.809Z,79.65
2022-12-18T08:46:44.065Z,79.59
2022-12-18T08:49:12.476Z,79.88
2022-12-18T08:51:40.743Z,79.50
2022-12-18T08:54:07.912Z,79.79
2022-12-18T08:56:35.198Z,79.54
2022-12-18T08:59:02.776Z,80.17
2022-12-18T09:01:30.093Z,79.54
2022-12-18T09:03:57.833Z,79.07
2022-12-18T09:06:24.874Z,79.18
2022-12-18T09:08:52.025Z,79.43
2022-12-18T09:11:27.289Z,79.64
2022-12-18T09:13:58.705Z,78.68
2022-12-18T09:16:32.941Z,78.59
2022-12-18T09:19:00.925Z,78.56
2022-12-18T09:21:33.063Z,79.06
2022-12-18T09:24:05.161Z,78.62
2022-12-18T09:26:36.376Z,78.10
2022-12-18T09:29:04.180Z,78.00
2022-12-18T09:31:31.509Z,77.98
2022-12-18T09:33:58.741Z,77.48
2022-12-18T09:36:28.377Z,76.96
2022-12-18T09:38:55.659Z,77.27
2022-12-18T09:41:40.361Z,76.93
2022-12-18T09:44:27.644Z,76.40
2022-12-18T09:47:04.232Z,75.83
2022-12-18T09:49:37.033Z,76.07
2022-12-18T09:52:34.383Z,75.46
2022-12-18T09:55:20.825Z,75.04
2022-12-18T09:58:03.853Z,75.52
2022-12-18T10:00:30.773Z,74.58
2022-12-18T10:03:13.297Z,74.47
2022-12-18T10:06:07.719Z,75.01
2022-12-18T10:08:37.886Z,73.94
2022-12-18T10:11:34.024Z,74.21
2022-12-18T10:14:03.930Z,73.66
2022-12-18T10:17:00.552Z,73.66
2022-12-18T10:19:50.328Z,73.91
2022-12-18T10:22:42.087Z,73.26
2022-12-18T10:25:32.889Z,72.90
2022-12-18T10:28:13.102Z,73.37
2022-12-18T10:30:41.681Z,73.05
2022-12-18T10:33:15.433Z,71.88
2022-12-18T10:35:44.156Z,72.45
2022-12-18T10:38:14.177Z,71.45
2022-12-18T10:40:57.466Z,72.14
2022-12-18T10:43:30.537Z,72.96
2022-12-18T10:46:15.631Z,73.00
2022-12-18T10:48:49.072Z,71.02
2022-12-18T10:51:38.317Z,70.99
2022-12-18T10:54:14.016Z,71.75
2022-12-18T10:56:41.432Z,71.32
2022-12-18T10:59:13.636Z,71.25
2022-12-18T11:01:49.678Z,71.04
2022-12-18T11:04:19.876Z,70.93
2022-12-18T11:07:07.829Z,71.48
2022-12-18T11:09:40.685Z,71.24
2022-12-18T11:12:18.494Z,71.30
2022-12-18T11:14:53.053Z,71.07
2022-12-18T11:17:32.382Z,70.95
2022-12-18T11:20:02.716Z,71.36
2022-12-18T11:22:33.058Z,70.67
2022-12-18T11:28:14.561Z,70.30
2022-12-18T11:30:41.420Z,70.22
2022-12-18T11:33:21.854Z,69.84
2022-12-18T11:35:53.774Z,69.34
2022-12-18T11:38:29.578Z,69.93
2022-12-18T11:41:19.999Z,69.41
2022-12-18T11:43:56.616Z,69.51
2022-12-18T11:46:47.673Z,69.29
2022-12-18T11:49:23.345Z,68.87
2022-12-18T11:52:12.171Z,69.16
2022-12-18T11:54:39.063Z,68.73
2022-12-18T11:57:38.157Z,69.34
2022-12-18T12:00:16.773Z,68.91
2022-12-18T12:03:14.672Z,69.09
2022-12-18T12:06:09.462Z,68.66
2022-12-18T12:09:04.344Z,69.10
2022-12-18T12:11:59.070Z,68.59
2022-12-18T12:14:49.010Z,69.72
2022-12-18T12:17:43.728Z,68.94
2022-12-18T12:20:40.104Z,68.20
2022-12-18T12:23:30.763Z,67.97
2022-12-18T12:26:28.381Z,68.68
2022-12-18T12:29:22.891Z,68.90
2022-12-18T12:32:17.518Z,68.70
2022-12-18T12:35:09.439Z,69.09
2022-12-18T12:38:02.818Z,68.83
2022-12-18T12:40:55.313Z,68.48
2022-12-18T12:43:28.658Z,68.36
2022-12-18T12:46:14.991Z,68.42
2022-12-18T12:48:53.544Z,68.52
2022-12-18T12:51:33.210Z,69.30
2022-12-18T12:54:05.798Z,69.11
2022-12-18T12:56:53.636Z,68.97
2022-12-18T12:59:33.462Z,68.72
2022-12-18T13:02:16.466Z,68.94
2022-12-18T13:04:58.324Z,69.02
2022-12-18T13:07:33.484Z,68.96
2022-12-18T13:10:12.874Z,68.83
2022-12-18T13:13:01.800Z,68.42
2022-12-18T13:15:50.316Z,68.27
2022-12-18T13:18:21.649Z,68.49
2022-12-18T13:21:03.708Z,68.40
2022-12-18T13:23:35.357Z,68.68
2022-12-18T13:26:09.078Z,68.25
2022-12-18T13:28:46.016Z,68.82
2022-12-18T13:31:41.943Z,69.09
2022-12-18T13:34:26.966Z,68.63
2022-12-18T13:37:18.858Z,67.76
2022-12-18T13:39:46.136Z,68.27
2022-12-18T13:42:34.596Z,67.76
2022-12-18T13:45:01.901Z,68.57
2022-12-18T13:47:38.315Z,68.00
2022-12-18T13:50:28.554Z,67.32
2022-12-18T13:52:59.338Z,67.67
2022-12-18T13:55:26.712Z,67.89
2022-12-18T13:58:05.419Z,67.92
2022-12-18T14:00:32.727Z,67.40
2022-12-18T14:03:01.024Z,67.56
2022-12-18T14:05:36.337Z,68.39
2022-12-18T14:08:13.601Z,67.51
2022-12-18T14:10:48.399Z,67.21
2022-12-18T14:13:29.021Z,68.18
2022-12-18T14:15:58.675Z,67.95
2022-12-18T14:18:45.069Z,67.34
2022-12-18T14:21:38.747Z,68.18
2022-12-18T14:24:09.776Z,67.95
2022-12-18T14:26:36.688Z,67.68
2022-12-18T14:29:22.275Z,67.60
2022-12-18T14:32:16.896Z,67.47
2022-12-18T14:34:49.828Z,67.63
2022-12-18T14:37:21.165Z,67.58
2022-12-18T14:40:10.524Z,67.91
2022-12-18T14:42:38.623Z,68.51
2022-12-18T14:45:43.679Z,68.25
2022-12-18T14:48:23.372Z,69.15
2022-12-18T14:51:00.979Z,69.44
2022-12-18T14:53:54.330Z,69.49
2022-12-18T14:56:26.395Z,70.00
2022-12-18T14:59:18.057Z,70.20
2022-12-18T15:01:55.136Z,70.02
2022-12-18T15:04:40.105Z,69.67
2022-12-18T15:07:20.692Z,70.38
2022-12-18T15:10:02.589Z,70.36
2022-12-18T15:12:36.420Z,70.57
2022-12-18T15:15:04.925Z,69.69
2022-12-18T15:17:32.228Z,70.30
2022-12-18T15:20:11.286Z,70.37
2022-12-18T15:22:38.377Z,70.64
2022-12-18T15:25:32.539Z,70.37
2022-12-18T15:27:59.616Z,70.89
2022-12-18T15:30:27.347Z,70.62
2022-12-18T15:33:18.026Z,71.24
2022-12-18T15:35:47.139Z,70.55
2022-12-18T15:38:14.224Z,70.43
2022-12-18T15:40:41.278Z,70.59
2022-12-18T15:43:28.755Z,70.87
2022-12-18T15:45:55.849Z,69.97
2022-12-18T15:48:23.862Z,70.08
2022-12-18T15:50:56.380Z,70.52
2022-12-18T15:53:26.274Z,70.89
2022-12-18T15:56:11.716Z,70.29
2022-12-18T15:58:39.225Z,70.30
2022-12-18T16:01:09.906Z,70.69
2022-12-18T16:03:37.358Z,70.62
2022-12-18T16:06:04.469Z,70.50
2022-12-18T16:08:31.665Z,70.92
2022-12-18T16:10:59.332Z,71.02
2022-12-18T16:13:26.634Z,71.77
2022-12-18T16:15:54.217Z,72.25
2022-12-18T16:18:21.401Z,71.18
2022-12-18T16:20:48.284Z,71.60
2022-12-18T16:23:15.271Z,71.86
2022-12-18T16:25:42.393Z,72.12
2022-12-18T16:28:09.632Z,72.04
2022-12-18T16:30:38.737Z,72.09
2022-12-18T16:33:07.465Z,72.34
2022-12-18T16:35:37.888Z,72.49
2022-12-18T16:38:05.189Z,72.03
2022-12-18T16:40:33.849Z,72.09
2022-12-18T16:43:00.830Z,71.79
2022-12-18T16:45:34.091Z,71.87
2022-12-18T16:48:04.511Z,72.38
2022-12-18T16:50:31.722Z,72.13
2022-12-18T16:52:58.851Z,72.73
2022-12-18T16:55:25.796Z,73.19
2022-12-18T16:57:52.750Z,72.56
2022-12-18T17:00:19.767Z,72.92
2022-12-18T17:02:47.072Z,72.74
2022-12-18T17:05:14.404Z,72.53
2022-12-18T17:07:41.452Z,72.83
2022-12-18T17:10:08.956Z,72.95
2022-12-18T17:12:37.310Z,72.43
2022-12-18T17:15:04.726Z,73.03
2022-12-18T17:17:31.968Z,72.96
2022-12-18T17:19:58.887Z,72.59
2022-12-18T17:22:26.205Z,73.41
2022-12-18T17:24:53.179Z,73.24
2022-12-18T17:27:20.362Z,73.25
2022-12-18T17:29:48.817Z,73.50
2022-12-18T17:32:17.669Z,73.67
2022-12-18T17:34:44.987Z,73.32
2022-12-18T17:37:12.180Z,73.93
2022-12-18T17:39:39.470Z,73.67
2022-12-18T17:42:06.854Z,73.57
2022-12-18T17:44:35.145Z,74.12
2022-12-18T17:47:02.708Z,74.17
2022-12-18T17:49:29.882Z,74.33
2022-12-18T17:51:56.881Z,74.33
2022-12-18T17:54:23.943Z,73.79
2022-12-18T17:56:51.072Z,74.51
2022-12-18T17:59:18.004Z,74.41
2022-12-18T18:01:45.743Z,74.65
2022-12-18T18:04:15.327Z,74.78
2022-12-18T18:06:42.528Z,74.49
2022-12-18T18:09:16.483Z,74.67
2022-12-18T18:12:04.127Z,74.53
2022-12-18T18:14:33.141Z,74.31
2022-12-18T18:17:04.831Z,74.39
2022-12-18T18:19:33.790Z,74.43
2022-12-18T18:22:01.689Z,74.78
2022-12-18T18:24:48.597Z,74.83
2022-12-18T18:27:16.205Z,75.11
2022-12-18T18:29:43.836Z,74.95
2022-12-18T18:32:11.086Z,75.10
2022-12-18T18:34:38.008Z,75.25
2022-12-18T18:37:05.948Z,75.49
2022-12-18T18:39:33.190Z,74.97
2022-12-18T18:42:00.509Z,75.21
2022-12-18T18:44:27.437Z,75.14
2022-12-18T18:46:58.404Z,74.96
2022-12-18T18:49:27.721Z,75.38
2022-12-18T18:51:57.113Z,75.73
2022-12-18T18:54:25.600Z,75.77
2022-12-18T18:59:39.868Z,75.40
2022-12-18T19:02:11.510Z,75.84
2022-12-18T19:04:43.109Z,75.36
2022-12-18T19:07:12.857Z,75.36
2022-12-18T19:09:41.954Z,75.23
2022-12-18T19:12:28.421Z,75.06
2022-12-18T19:14:55.779Z,75.30
2022-12-18T19:17:29.560Z,75.42
2022-12-18T19:19:57.682Z,75.88
2022-12-18T19:22:24.565Z,75.42
2022-12-18T19:24:51.412Z,75.15
2022-12-18T19:27:18.498Z,74.58
2022-12-18T19:29:45.583Z,75.45
2022-12-18T19:32:12.914Z,75.25
2022-12-18T19:34:40.218Z,74.99
2022-12-18T19:37:07.648Z,74.57
2022-12-18T19:39:34.566Z,75.18
2022-12-18T19:42:01.709Z,74.85
2022-12-18T19:44:28.652Z,74.56
2022-12-18T19:46:55.803Z,74.50
2022-12-18T19:49:22.850Z,74.70
2022-12-18T19:51:50.427Z,74.97
2022-12-18T19:54:18.023Z,74.63
2022-12-18T19:56:45.580Z,74.86
2022-12-18T19:59:13.393Z,75.21
2022-12-18T20:01:40.922Z,75.15
2022-12-18T20:04:08.600Z,75.27
2022-12-18T20:06:47.435Z,74.90
2022-12-18T20:09:14.973Z,74.96
2022-12-18T20:11:42.712Z,74.99
2022-12-18T20:14:11.436Z,75.28
2022-12-18T20:16:38.726Z,75.55
2022-12-18T20:19:06.995Z,75.53
2022-12-18T20:21:34.716Z,75.05
2022-12-18T20:24:02.163Z,75.80
2022-12-18T20:26:29.366Z,75.61
2022-12-18T20:28:56.739Z,76.98
2022-12-18T20:31:24.460Z,76.71
2022-12-18T20:33:52.173Z,77.59
2022-12-18T20:36:23.583Z,77.42
2022-12-18T20:38:57.267Z,77.70
2022-12-18T20:41:26.320Z,77.92
2022-12-18T20:43:58.798Z,77.61
2022-12-18T20:46:26.039Z,78.34
2022-12-18T20:48:53.143Z,77.91
2022-12-18T20:51:21.039Z,78.97
2022-12-18T20:53:48.830Z,78.36
2022-12-18T20:56:21.875Z,77.79
2022-12-18T20:58:54.826Z,78.39
2022-12-18T21:01:24.226Z,77.51
2022-12-18T21:03:52.829Z,77.82
2022-12-18T21:06:22.822Z,77.68
2022-12-18T21:08:49.952Z,77.71
2022-12-18T21:11:38.265Z,77.60
2022-12-18T21:14:10.389Z,77.96
2022-12-18T21:16:37.562Z,78.24
2022-12-18T21:19:04.627Z,78.38
2022-12-18T21:21:35.898Z,77.85
2022-12-18T21:24:07.631Z,78.05
2022-12-18T21:26:34.528Z,79.35
2022-12-18T21:29:07.632Z,79.04
2022-12-18T21:31:37.554Z,78.93
2022-12-18T21:34:06.795Z,79.34
2022-12-18T21:36:34.940Z,79.19
2022-12-18T21:39:02.289Z,79.61
2022-12-18T21:41:47.810Z,79.93
2022-12-18T21:44:17.891Z,79.90
2022-12-18T21:46:51.489Z,79.90
2022-12-18T21:49:22.856Z,79.71
2022-12-18T21:51:55.483Z,79.67
2022-12-18T21:54:23.374Z,80.36
2022-12-18T21:56:55.774Z,80.56
2022-12-18T21:59:25.200Z,80.15
2022-12-18T22:01:54.633Z,80.20
2022-12-18T22:04:22.731Z,80.53
2022-12-18T22:06:50.038Z,80.83
2022-12-18T22:09:20.618Z,80.54
2022-12-18T22:11:49.594Z,81.16
2022-12-18T22:14:16.956Z,80.62
2022-12-18T22:16:44.665Z,81.24
2022-12-18T22:19:12.545Z,81.71
2022-12-18T22:21:46.521Z,81.52
2022-12-18T22:24:16.803Z,82.31
2022-12-18T22:26:45.412Z,81.85
2022-12-18T22:29:39.716Z,82.06
2022-12-18T22:32:10.320Z,82.19
2022-12-18T22:34:39.319Z,82.61
2022-12-18T22:37:06.671Z,82.58
2022-12-18T22:39:33.748Z,83.07
2022-12-18T22:42:00.879Z,83.08
2022-12-18T22:44:28.500Z,83.74
2022-12-18T22:47:05.965Z,83.78
2022-12-18T22:49:35.688Z,83.05
2022-12-18T22:52:04.645Z,83.63
2022-12-18T22:54:31.720Z,83.54
2022-12-18T22:56:58.600Z,84.00
2022-12-18T22:59:25.534Z,84.40
2022-12-18T23:01:57.082Z,84.79
2022-12-18T23:04:29.987Z,84.80
2022-12-18T23:07:04.603Z,84.78
2022-12-18T23:09:32.211Z,84.70
2022-12-18T23:11:59.317Z,84.90
2022-12-18T23:14:26.293Z,84.96
2022-12-18T23:16:53.418Z,85.53
2022-12-18T23:19:21.438Z,85.04
2022-12-18T23:21:50.832Z,85.25
2022-12-18T23:24:17.766Z,85.48
2022-12-18T23:26:44.923Z,85.99
2022-12-18T23:29:11.795Z,85.73
2022-12-18T23:31:39.745Z,85.74
2022-12-18T23:34:08.718Z,85.85
2022-12-18T23:36:45.487Z,86.47
2022-12-18T23:39:17.436Z,86.17
2022-12-18T23:41:59.903Z,86.47
2022-12-18T23:44:27.629Z,86.84
2022-12-18T23:46:54.988Z,86.52
2022-12-18T23:49:22.864Z,86.78
2022-12-18T23:51:50.278Z,86.87
2022-12-18T23:54:17.344Z,86.86
2022-12-18T23:56:49.337Z,86.16
2022-12-18T23:59:16.222Z,86.71
